Time;durP1;ratioP1;P1;durP2;ratioP2;P2;SDS_P1;SDS_P2;PMS_P1;PMS_P2;Temp;Humidity;BMP_temperature;BMP_pressure;BME280_temperature;BME280_humidity;BME280_pressure;Samples;Min_cycle;Max_cycle;Signal;HPM_P1;HPM_P2
2023/06/12 00:01:24;;;;;;;9.60;2.60;;;22.10;99.90;;;;;;5074347;28;20169;-62
2023/06/12 00:03:49;;;;;;;7.43;3.10;;;22.10;99.90;;;;;;5076066;28;20168;-60
2023/06/12 00:06:16;;;;;;;5.93;2.73;;;22.00;99.90;;;;;;5074757;28;20234;-60
2023/06/12 00:08:43;;;;;;;5.60;2.80;;;22.00;99.90;;;;;;5075579;28;20195;-61
2023/06/12 00:11:16;;;;;;;8.07;2.53;;;21.90;99.90;;;;;;5074165;28;20200;-61
2023/06/12 00:13:44;;;;;;;3.30;2.27;;;21.80;99.90;;;;;;5074308;28;20175;-60
2023/06/12 00:16:10;;;;;;;4.93;2.77;;;21.70;99.90;;;;;;5074533;28;20204;-60
2023/06/12 00:18:38;;;;;;;7.03;2.40;;;21.60;99.90;;;;;;5074573;28;20183;-61
2023/06/12 00:21:05;;;;;;;2.70;2.10;;;21.60;99.90;;;;;;5074038;28;20641;-61
2023/06/12 00:23:31;;;;;;;4.47;2.23;;;21.60;99.90;;;;;;5073020;28;20436;-61
2023/06/12 00:25:56;;;;;;;5.10;2.50;;;21.50;99.90;;;;;;5074106;28;20157;-60
2023/06/12 00:28:22;;;;;;;8.53;2.63;;;21.50;99.90;;;;;;5074211;28;20214;-61
2023/06/12 00:30:48;;;;;;;5.17;2.97;;;21.50;99.90;;;;;;5074113;28;20161;-60
2023/06/12 00:33:13;;;;;;;4.30;2.47;;;21.50;99.90;;;;;;5072727;28;20494;-60
2023/06/12 00:35:39;;;;;;;3.80;2.40;;;21.50;99.90;;;;;;5078416;28;20548;-61
2023/06/12 00:38:06;;;;;;;6.70;2.40;;;21.40;99.90;;;;;;5078829;28;20165;-61
2023/06/12 00:40:32;;;;;;;6.50;2.40;;;21.30;99.90;;;;;;5077990;28;20191;-60
2023/06/12 00:42:57;;;;;;;4.60;2.47;;;21.40;99.90;;;;;;5078490;28;20259;-60
2023/06/12 00:45:23;;;;;;;5.60;2.60;;;21.30;99.90;;;;;;5078945;28;20169;-61
2023/06/12 00:47:53;;;;;;;4.70;1.90;;;21.20;99.90;;;;;;5078653;28;20192;-62
2023/06/12 00:50:20;;;;;;;4.97;2.17;;;21.10;99.90;;;;;;5079121;28;20207;-61
2023/06/12 00:52:47;;;;;;;4.53;2.63;;;21.10;99.90;;;;;;5077318;28;20180;-61
2023/06/12 00:55:33;;;;;;;7.37;2.73;;;21.10;99.90;;;;;;5077658;28;20173;-59
2023/06/12 00:58:01;;;;;;;10.23;2.63;;;21.00;99.90;;;;;;5077995;28;20543;-61
2023/06/12 01:00:27;;;;;;;3.40;2.40;;;21.00;99.90;;;;;;5077651;28;20197;-61
2023/06/12 01:03:04;;;;;;;3.73;2.10;;;21.00;99.90;;;;;;5077662;28;20255;-60
2023/06/12 01:05:35;;;;;;;3.20;2.20;;;21.00;99.90;;;;;;5077925;28;20211;-60
2023/06/12 01:08:07;;;;;;;6.83;2.23;;;20.90;99.90;;;;;;5078677;28;20169;-61
2023/06/12 01:10:45;;;;;;;6.67;2.63;;;20.80;99.90;;;;;;5079635;28;20440;-61
2023/06/12 01:13:11;;;;;;;5.17;2.80;;;20.80;99.90;;;;;;5078101;28;20169;-60
2023/06/12 01:15:38;;;;;;;5.57;2.70;;;20.70;99.90;;;;;;5077419;28;20564;-61
2023/06/12 01:18:06;;;;;;;10.50;2.33;;;20.70;99.90;;;;;;5077445;28;20714;-61
2023/06/12 01:20:33;;;;;;;3.63;2.60;;;20.70;99.90;;;;;;5077427;28;20504;-60
2023/06/12 01:23:31;;;;;;;5.80;2.83;;;20.70;99.90;;;;;;5076952;28;20211;-61
2023/06/12 01:26:09;;;;;;;7.10;2.43;;;20.70;99.90;;;;;;5077329;28;20168;-61
2023/06/12 01:29:11;;;;;;;8.27;2.37;;;20.60;99.90;;;;;;5077265;28;20199;-61
2023/06/12 01:31:56;;;;;;;3.43;2.63;;;20.60;99.90;;;;;;5076879;28;20283;-60
2023/06/12 01:34:28;;;;;;;3.83;2.00;;;20.60;99.90;;;;;;5078578;28;20243;-61
2023/06/12 01:37:05;;;;;;;6.70;2.53;;;20.60;99.90;;;;;;5077856;28;20223;-60
2023/06/12 01:39:36;;;;;;;3.07;2.70;;;20.50;99.90;;;;;;5077585;28;20197;-62
2023/06/12 01:42:03;;;;;;;6.33;2.90;;;20.50;99.90;;;;;;5077995;28;20196;-60
2023/06/12 01:44:36;;;;;;;3.97;2.37;;;20.50;99.90;;;;;;5077544;28;20184;-60
2023/06/12 01:47:03;;;;;;;8.80;2.63;;;20.50;99.90;;;;;;5077844;28;20177;-60
2023/06/12 01:49:28;;;;;;;4.40;2.20;;;20.40;99.90;;;;;;5078214;28;20165;-63
2023/06/12 01:51:54;;;;;;;6.40;3.10;;;20.40;99.90;;;;;;5078723;28;20377;-62
2023/06/12 01:54:21;;;;;;;3.50;2.50;;;20.40;99.90;;;;;;5078140;28;20251;-62
2023/06/12 01:56:47;;;;;;;6.53;2.83;;;20.30;99.90;;;;;;5077183;28;20184;-61
2023/06/12 01:59:13;;;;;;;8.27;2.80;;;20.30;99.90;;;;;;5077312;28;20185;-61
2023/06/12 02:01:38;;;;;;;5.27;2.97;;;20.20;99.90;;;;;;5077583;28;20259;-60
2023/06/12 02:04:04;;;;;;;3.00;2.23;;;20.20;99.90;;;;;;5076681;28;20536;-61
2023/06/12 02:06:30;;;;;;;5.77;2.60;;;20.20;99.90;;;;;;5077270;28;20173;-61
2023/06/12 02:08:56;;;;;;;3.90;2.37;;;20.10;99.90;;;;;;5076371;28;20177;-61
2023/06/12 02:11:28;;;;;;;5.00;2.70;;;20.10;99.90;;;;;;5077077;28;20180;-60
2023/06/12 02:13:59;;;;;;;5.63;2.97;;;20.00;99.90;;;;;;5077091;28;20260;-61
2023/06/12 02:16:25;;;;;;;9.43;3.37;;;20.00;99.90;;;;;;5074928;28;20191;-61
2023/06/12 02:18:50;;;;;;;5.17;2.67;;;19.90;99.90;;;;;;5074840;28;20482;-60
2023/06/12 02:21:17;;;;;;;9.27;3.53;;;19.90;99.90;;;;;;5076696;28;20184;-61
2023/06/12 02:23:42;;;;;;;4.87;2.43;;;19.80;99.90;;;;;;5077313;28;20169;-61
2023/06/12 02:26:08;;;;;;;6.37;2.83;;;19.80;99.90;;;;;;5076822;28;20537;-59
2023/06/12 02:28:34;;;;;;;2.93;2.33;;;19.80;99.90;;;;;;5077179;28;20508;-61
2023/06/12 02:31:00;;;;;;;3.13;2.43;;;19.80;99.90;;;;;;5076333;28;20525;-61
2023/06/12 02:33:27;;;;;;;7.87;3.03;;;19.60;99.90;;;;;;5076046;28;20255;-61
2023/06/12 02:35:53;;;;;;;4.80;3.03;;;19.60;99.90;;;;;;5077106;28;20206;-61
2023/06/12 02:38:18;;;;;;;4.13;2.67;;;19.50;99.90;;;;;;5076445;28;20204;-61
2023/06/12 02:40:44;;;;;;;3.10;2.37;;;19.50;99.90;;;;;;5076147;28;20302;-61
2023/06/12 02:43:09;;;;;;;4.13;3.43;;;19.50;99.90;;;;;;5076598;28;20165;-60
2023/06/12 02:45:35;;;;;;;7.90;2.97;;;19.50;99.90;;;;;;5077271;28;20237;-61
2023/06/12 02:48:01;;;;;;;6.40;3.10;;;19.40;99.90;;;;;;5077571;28;20149;-60
2023/06/12 02:50:27;;;;;;;5.10;2.50;;;19.50;99.90;;;;;;5076830;28;20458;-61
2023/06/12 02:52:53;;;;;;;3.73;3.03;;;19.50;99.90;;;;;;5076879;28;20179;-61
2023/06/12 02:55:18;;;;;;;6.23;2.97;;;19.40;99.90;;;;;;5076704;28;20230;-60
2023/06/12 02:57:44;;;;;;;3.80;2.80;;;19.40;99.90;;;;;;5077163;28;20181;-60
2023/06/12 03:00:12;;;;;;;6.93;2.83;;;19.40;99.90;;;;;;5076857;28;20193;-61
2023/06/12 03:02:42;;;;;;;5.10;2.97;;;19.40;99.90;;;;;;5077052;28;20172;-60
2023/06/12 03:05:12;;;;;;;8.70;3.60;;;19.40;99.90;;;;;;5077535;28;20195;-61
2023/06/12 03:07:40;;;;;;;6.50;2.90;;;19.30;99.90;;;;;;5076821;28;20175;-60
2023/06/12 03:10:06;;;;;;;8.27;2.50;;;19.30;99.90;;;;;;5076970;28;20183;-60
2023/06/12 03:12:31;;;;;;;9.27;2.83;;;19.30;99.90;;;;;;5077416;28;20176;-60
2023/06/12 03:15:03;;;;;;;7.50;2.87;;;19.30;99.90;;;;;;5076268;28;20267;-61
2023/06/12 03:17:28;;;;;;;4.13;3.00;;;19.30;99.90;;;;;;5076453;28;20184;-60
2023/06/12 03:19:54;;;;;;;12.53;3.97;;;19.20;99.90;;;;;;5076748;28;20738;-60
2023/06/12 03:22:19;;;;;;;5.13;2.73;;;19.10;99.90;;;;;;5076318;28;20176;-61
2023/06/12 03:24:45;;;;;;;5.10;2.90;;;19.10;99.90;;;;;;5076790;28;20161;-61
2023/06/12 03:27:11;;;;;;;9.13;3.00;;;19.10;99.90;;;;;;5077481;28;20169;-62
2023/06/12 03:29:36;;;;;;;6.90;3.20;;;19.10;99.90;;;;;;5076998;28;20226;-61
2023/06/12 03:32:02;;;;;;;3.80;3.00;;;19.10;99.90;;;;;;5076095;28;20269;-61
2023/06/12 03:34:28;;;;;;;4.47;3.13;;;19.10;99.90;;;;;;5076667;28;20279;-61
2023/06/12 03:36:54;;;;;;;6.10;2.87;;;19.10;99.90;;;;;;5076213;28;20180;-61
2023/06/12 03:39:28;;;;;;;5.97;3.17;;;19.10;99.90;;;;;;5075623;28;20280;-62
2023/06/12 03:41:58;;;;;;;8.67;3.40;;;19.10;99.90;;;;;;5075844;28;20157;-62
2023/06/12 03:44:24;;;;;;;4.30;2.90;;;19.10;99.90;;;;;;5075314;28;20164;-61
2023/06/12 03:46:50;;;;;;;7.93;2.80;;;19.10;99.90;;;;;;5076583;28;20548;-60
2023/06/12 03:49:16;;;;;;;3.33;3.00;;;19.10;99.90;;;;;;5076230;28;20168;-61
2023/06/12 03:51:42;;;;;;;8.23;2.93;;;19.10;99.90;;;;;;5075364;28;20237;-62
2023/06/12 03:54:09;;;;;;;6.50;2.70;;;19.10;99.90;;;;;;5075048;28;20184;-62
2023/06/12 03:56:38;;;;;;;4.03;2.67;;;19.00;99.90;;;;;;5076269;28;20561;-61
2023/06/12 03:59:04;;;;;;;5.60;3.20;;;19.00;99.90;;;;;;5075859;28;20569;-61
2023/06/12 04:01:30;;;;;;;5.57;2.90;;;19.00;99.90;;;;;;5075799;28;20429;-62
2023/06/12 04:03:56;;;;;;;7.47;3.30;;;19.00;99.90;;;;;;5073909;28;20595;-61
2023/06/12 04:06:22;;;;;;;10.60;3.37;;;19.00;99.90;;;;;;5076067;28;20361;-60
2023/06/12 04:08:48;;;;;;;7.77;3.00;;;18.90;99.90;;;;;;5077297;28;20624;-60
2023/06/12 04:11:21;;;;;;;7.30;3.50;;;18.90;99.90;;;;;;5079089;28;20721;-59
2023/06/12 04:13:47;;;;;;;4.10;3.00;;;19.00;99.90;;;;;;5078932;28;20280;-60
2023/06/12 04:16:13;;;;;;;5.60;3.93;;;19.00;99.90;;;;;;5078924;28;20720;-60
2023/06/12 04:18:39;;;;;;;6.50;3.63;;;19.00;99.90;;;;;;5077241;28;20179;-60
2023/06/12 04:21:06;;;;;;;5.90;2.93;;;18.90;99.90;;;;;;5075244;28;20364;-61
2023/06/12 04:23:32;;;;;;;4.27;3.27;;;18.90;99.90;;;;;;5076690;28;20233;-60
2023/06/12 04:26:04;;;;;;;7.27;3.00;;;18.90;99.90;;;;;;5075915;28;20169;-59
2023/06/12 04:28:31;;;;;;;5.00;3.90;;;19.00;99.90;;;;;;5076503;28;20614;-60
2023/06/12 04:30:59;;;;;;;4.93;3.00;;;18.90;99.90;;;;;;5076389;28;20826;-60
2023/06/12 04:33:30;;;;;;;6.00;2.87;;;18.90;99.90;;;;;;5075743;28;20566;-60
2023/06/12 04:35:57;;;;;;;4.97;3.20;;;18.90;99.90;;;;;;5076441;28;20169;-61
2023/06/12 04:38:23;;;;;;;10.87;3.73;;;19.00;99.90;;;;;;5076208;28;20179;-61
2023/06/12 04:40:51;;;;;;;8.30;3.77;;;18.90;99.90;;;;;;5076267;28;20782;-59
2023/06/12 04:43:19;;;;;;;8.20;3.47;;;18.90;99.90;;;;;;5077036;28;20211;-59
2023/06/12 04:45:45;;;;;;;3.70;3.00;;;18.90;99.90;;;;;;5077253;28;20192;-59
2023/06/12 04:48:12;;;;;;;4.93;3.47;;;18.90;99.90;;;;;;5077773;28;20212;-60
2023/06/12 04:50:38;;;;;;;5.47;3.50;;;18.90;99.90;;;;;;5054449;28;20181;-62
2023/06/12 04:53:03;;;;;;;5.97;3.90;;;18.90;99.90;;;;;;5041931;28;20236;-60
2023/06/12 04:55:30;;;;;;;5.43;3.53;;;18.90;99.90;;;;;;5048750;28;20199;-60
2023/06/12 04:57:59;;;;;;;10.07;3.80;;;19.00;99.90;;;;;;5074481;28;20173;-60
2023/06/12 05:00:28;;;;;;;5.27;3.30;;;19.00;99.90;;;;;;5058257;28;20197;-61
2023/06/12 05:02:55;;;;;;;5.30;3.17;;;19.00;99.90;;;;;;5073947;28;20166;-62
2023/06/12 05:05:21;;;;;;;7.07;3.10;;;18.90;99.90;;;;;;5039788;28;20552;-61
2023/06/12 05:07:47;;;;;;;10.77;3.60;;;18.90;99.90;;;;;;5057125;28;20173;-60
2023/06/12 05:10:14;;;;;;;6.93;3.80;;;18.90;99.90;;;;;;5056584;28;20169;-63
2023/06/12 05:12:42;;;;;;;5.67;3.67;;;18.90;99.90;;;;;;5039180;28;20177;-61
2023/06/12 05:15:09;;;;;;;7.90;3.20;;;18.90;99.90;;;;;;5035308;28;20272;-61
2023/06/12 05:17:34;;;;;;;6.27;3.70;;;18.90;99.90;;;;;;5029257;28;20177;-61
2023/06/12 05:20:01;;;;;;;13.20;4.17;;;19.00;99.90;;;;;;5062624;28;20611;-61
2023/06/12 05:22:26;;;;;;;7.07;3.43;;;19.00;99.90;;;;;;5037286;28;20178;-61
2023/06/12 05:24:53;;;;;;;5.30;3.60;;;19.00;99.90;;;;;;5037430;28;20169;-61
2023/06/12 05:27:19;;;;;;;4.83;3.37;;;19.00;99.90;;;;;;5055830;28;20272;-61
2023/06/12 05:29:44;;;;;;;5.40;3.50;;;19.00;99.90;;;;;;5072432;28;20276;-61
2023/06/12 05:32:11;;;;;;;5.17;3.33;;;19.00;99.90;;;;;;5071821;28;20332;-61
2023/06/12 05:34:37;;;;;;;6.77;3.90;;;19.10;99.90;;;;;;5038433;28;20177;-62
2023/06/12 05:37:03;;;;;;;8.63;4.20;;;19.10;99.90;;;;;;5039815;28;20181;-61
2023/06/12 05:39:30;;;;;;;6.10;3.60;;;19.10;99.90;;;;;;5039344;28;20205;-61
2023/06/12 05:41:56;;;;;;;9.03;3.73;;;19.10;99.90;;;;;;5072214;28;20162;-61
2023/06/12 05:44:22;;;;;;;5.33;3.90;;;19.20;99.90;;;;;;5056051;28;20173;-61
2023/06/12 05:46:51;;;;;;;8.70;4.10;;;19.10;99.90;;;;;;5072265;28;20173;-61
2023/06/12 05:49:17;;;;;;;6.57;3.97;;;19.20;99.90;;;;;;5055338;28;20248;-60
2023/06/12 05:51:43;;;;;;;8.60;4.13;;;19.20;99.90;;;;;;5038556;28;20268;-61
2023/06/12 05:54:08;;;;;;;5.73;3.63;;;19.20;99.90;;;;;;5037723;28;20184;-61
2023/06/12 05:56:34;;;;;;;5.87;3.33;;;19.20;99.90;;;;;;5053096;28;20178;-61
2023/06/12 05:58:59;;;;;;;5.23;4.00;;;19.30;99.90;;;;;;5051041;28;20201;-61
2023/06/12 06:01:25;;;;;;;5.07;4.07;;;19.30;99.90;;;;;;5049459;28;20169;-60
2023/06/12 06:03:52;;;;;;;8.27;4.03;;;19.40;99.90;;;;;;5029342;28;20728;-60
2023/06/12 06:06:18;;;;;;;4.53;3.73;;;19.40;99.90;;;;;;5061434;28;20180;-61
2023/06/12 06:08:44;;;;;;;6.57;3.70;;;19.50;99.90;;;;;;5027961;28;20204;-60
2023/06/12 06:11:10;;;;;;;5.50;4.23;;;19.50;99.90;;;;;;5030934;28;20175;-58
2023/06/12 06:13:35;;;;;;;6.90;4.30;;;19.60;99.90;;;;;;5031586;28;20594;-61
2023/06/12 06:16:02;;;;;;;4.77;3.67;;;19.60;99.90;;;;;;5065308;28;20166;-61
2023/06/12 06:18:29;;;;;;;5.30;4.07;;;19.60;99.90;;;;;;5033025;28;20170;-60
2023/06/12 06:20:55;;;;;;;4.57;3.80;;;19.70;99.90;;;;;;5062232;28;20303;-61
2023/06/12 06:23:25;;;;;;;15.63;4.77;;;19.70;99.90;;;;;;5024984;28;20326;-60
2023/06/12 06:25:51;;;;;;;6.67;3.87;;;19.70;99.90;;;;;;5042572;28;20251;-60
2023/06/12 06:28:16;;;;;;;7.70;3.60;;;19.70;99.90;;;;;;5044636;28;20240;-61
2023/06/12 06:30:42;;;;;;;6.03;4.27;;;19.70;99.90;;;;;;5024945;28;20234;-60
2023/06/12 06:33:07;;;;;;;7.63;4.20;;;19.80;99.90;;;;;;5040866;28;20232;-59
2023/06/12 06:35:33;;;;;;;5.67;4.53;;;19.80;99.90;;;;;;5038756;28;20225;-60
2023/06/12 06:37:58;;;;;;;6.53;4.50;;;19.90;99.90;;;;;;5042137;28;20197;-59
2023/06/12 06:40:25;;;;;;;3.83;3.43;;;19.90;99.90;;;;;;5061749;28;20197;-61
2023/06/12 06:42:52;;;;;;;5.83;4.10;;;19.90;99.90;;;;;;5045530;28;20226;-61
2023/06/12 06:45:19;;;;;;;6.13;4.20;;;19.90;99.90;;;;;;5044768;28;20256;-61
2023/06/12 06:47:45;;;;;;;6.13;3.90;;;19.90;99.90;;;;;;5043357;28;20345;-61
2023/06/12 06:50:11;;;;;;;8.93;4.77;;;20.00;99.90;;;;;;5027224;28;20173;-61
2023/06/12 06:52:36;;;;;;;5.63;4.00;;;20.00;99.90;;;;;;5027273;28;20185;-61
2023/06/12 06:55:02;;;;;;;5.47;3.80;;;20.00;99.90;;;;;;5025776;28;20173;-61
2023/06/12 06:57:28;;;;;;;4.83;4.17;;;20.10;99.90;;;;;;5040007;28;20173;-60
2023/06/12 06:59:55;;;;;;;5.90;3.80;;;20.10;99.90;;;;;;5041424;28;20201;-60
2023/06/12 07:02:22;;;;;;;6.60;3.90;;;20.10;99.90;;;;;;5040784;28;20330;-60
2023/06/12 07:04:50;;;;;;;5.90;4.07;;;20.20;99.90;;;;;;5039870;28;20457;-60
2023/06/12 07:07:16;;;;;;;5.03;3.70;;;20.20;99.90;;;;;;5023635;28;20193;-60
2023/06/12 07:09:42;;;;;;;5.93;3.70;;;20.20;99.90;;;;;;5039000;28;20212;-60
2023/06/12 07:12:08;;;;;;;6.63;3.90;;;20.30;99.90;;;;;;5020511;28;20200;-61
2023/06/12 07:14:34;;;;;;;6.50;3.87;;;20.30;99.90;;;;;;5019818;28;20265;-60
2023/06/12 07:16:59;;;;;;;5.00;3.63;;;20.30;99.90;;;;;;5019930;28;20184;-60
2023/06/12 07:19:25;;;;;;;3.90;3.60;;;20.40;99.90;;;;;;5036992;28;20381;-60
2023/06/12 07:21:51;;;;;;;4.63;3.90;;;20.40;99.90;;;;;;5024516;28;20848;-60
2023/06/12 07:24:20;;;;;;;3.90;3.60;;;20.40;99.90;;;;;;5029162;28;20181;-61
2023/06/12 07:26:46;;;;;;;4.77;3.90;;;20.50;99.90;;;;;;5031583;28;20179;-61
2023/06/12 07:29:12;;;;;;;5.60;4.20;;;20.50;99.90;;;;;;5031581;28;20178;-60
2023/06/12 07:31:38;;;;;;;4.57;3.83;;;20.50;99.90;;;;;;5029342;28;20225;-60
2023/06/12 07:34:04;;;;;;;7.20;3.60;;;20.60;99.90;;;;;;5030909;28;20173;-60
2023/06/12 07:36:35;;;;;;;9.80;3.53;;;20.60;99.90;;;;;;5029719;28;20515;-59
2023/06/12 07:39:02;;;;;;;5.47;3.57;;;20.70;99.90;;;;;;5029611;28;20710;-60
2023/06/12 07:41:27;;;;;;;6.13;4.13;;;20.70;99.90;;;;;;5025736;28;20170;-59
2023/06/12 07:43:53;;;;;;;5.97;3.67;;;20.70;99.90;;;;;;5031175;28;20173;-61
2023/06/12 07:46:19;;;;;;;6.93;3.77;;;20.70;99.90;;;;;;5035482;28;20162;-61
2023/06/12 07:48:44;;;;;;;5.40;3.70;;;20.70;99.90;;;;;;5036148;28;20173;-61
2023/06/12 07:51:10;;;;;;;9.03;4.00;;;20.80;99.90;;;;;;5036335;28;20165;-61
2023/06/12 07:53:36;;;;;;;8.20;3.80;;;20.90;99.90;;;;;;5037201;28;20677;-60
2023/06/12 07:56:03;;;;;;;5.00;3.40;;;20.90;99.90;;;;;;5034547;28;20615;-61
2023/06/12 07:58:31;;;;;;;6.23;3.53;;;20.90;99.90;;;;;;5033683;28;20268;-61
2023/06/12 08:00:56;;;;;;;6.03;3.37;;;21.00;99.90;;;;;;5031675;28;20209;-57
2023/06/12 08:03:28;;;;;;;6.43;3.67;;;21.00;99.90;;;;;;5033721;28;20687;-61
2023/06/12 08:05:53;;;;;;;5.60;3.70;;;21.10;99.90;;;;;;5033694;28;20277;-60
2023/06/12 08:08:20;;;;;;;3.50;3.20;;;21.10;99.90;;;;;;5033421;28;20166;-60
2023/06/12 08:10:47;;;;;;;12.20;3.90;;;21.20;99.90;;;;;;5044080;28;20178;-60
2023/06/12 08:13:13;;;;;;;9.83;3.90;;;21.20;99.90;;;;;;5054694;28;20839;-60
2023/06/12 08:15:38;;;;;;;6.30;3.50;;;21.30;99.90;;;;;;5053193;28;20184;-60
2023/06/12 08:18:04;;;;;;;5.30;3.40;;;21.40;99.90;;;;;;5052130;28;20173;-61
2023/06/12 08:20:34;;;;;;;4.00;3.07;;;21.40;99.90;;;;;;5050851;28;20197;-60
2023/06/12 08:22:59;;;;;;;6.50;3.73;;;21.40;99.90;;;;;;5050937;28;20175;-60
2023/06/12 08:25:25;;;;;;;4.23;3.03;;;21.50;99.90;;;;;;5051247;28;20173;-60
2023/06/12 08:27:52;;;;;;;9.27;3.50;;;21.50;99.90;;;;;;5049993;28;20177;-60
2023/06/12 08:30:18;;;;;;;6.83;4.50;;;21.60;99.90;;;;;;5050539;28;20444;-60
2023/06/12 08:32:49;;;;;;;7.40;3.53;;;21.70;99.90;;;;;;5048680;28;20921;-60
2023/06/12 08:35:15;;;;;;;5.23;3.37;;;21.80;99.90;;;;;;5050791;28;20180;-60
2023/06/12 08:37:40;;;;;;;5.07;3.27;;;21.80;99.90;;;;;;5051099;28;20173;-60
2023/06/12 08:40:08;;;;;;;4.07;3.40;;;21.80;99.90;;;;;;5050786;28;20205;-60
2023/06/12 08:42:36;;;;;;;8.20;3.80;;;21.80;99.90;;;;;;5049797;28;20205;-60
2023/06/12 08:45:07;;;;;;;5.10;3.50;;;21.80;99.90;;;;;;5046696;28;20628;-57
2023/06/12 08:47:35;;;;;;;6.23;3.80;;;21.90;99.90;;;;;;5046167;28;20256;-59
2023/06/12 08:50:03;;;;;;;3.60;3.30;;;21.90;99.90;;;;;;5044976;28;20177;-59
2023/06/12 08:52:31;;;;;;;5.17;4.17;;;21.90;99.90;;;;;;5048052;28;20170;-60
2023/06/12 08:54:58;;;;;;;6.37;3.27;;;22.00;99.90;;;;;;5045931;28;20174;-59
2023/06/12 08:57:26;;;;;;;5.97;2.97;;;22.10;99.00;;;;;;5047812;28;20169;-60
2023/06/12 08:59:52;;;;;;;7.47;3.03;;;22.20;98.50;;;;;;5048430;28;20205;-60
2023/06/12 09:02:25;;;;;;;4.30;3.90;;;22.20;98.90;;;;;;5049870;28;20182;-60
2023/06/12 09:05:06;;;;;;;8.13;7.13;;;22.30;98.70;;;;;;5048888;28;20179;-60
2023/06/12 09:07:37;;;;;;;4.07;3.70;;;22.20;98.40;;;;;;5049940;28;20173;-60
2023/06/12 09:10:03;;;;;;;3.80;3.40;;;22.30;98.70;;;;;;5048368;28;20334;-60
2023/06/12 09:12:29;;;;;;;3.10;2.80;;;22.30;98.90;;;;;;5045170;28;20558;-58
2023/06/12 09:14:55;;;;;;;3.17;2.87;;;22.40;99.00;;;;;;5044917;28;20184;-60
2023/06/12 09:17:26;;;;;;;3.77;3.17;;;22.40;98.90;;;;;;5041464;28;20173;-59
2023/06/12 09:19:52;;;;;;;5.67;3.00;;;22.40;99.50;;;;;;5043039;28;20702;-60
2023/06/12 09:22:20;;;;;;;3.50;3.13;;;22.40;99.10;;;;;;5044486;28;20234;-60
2023/06/12 09:24:46;;;;;;;7.17;3.10;;;22.50;98.50;;;;;;5045449;28;20189;-59
2023/06/12 09:27:12;;;;;;;5.43;3.03;;;22.60;96.70;;;;;;5045142;28;20177;-59
2023/06/12 09:29:40;;;;;;;5.27;3.10;;;22.70;94.30;;;;;;5046480;28;20438;-60
2023/06/12 09:32:10;;;;;;;4.07;2.40;;;22.70;95.00;;;;;;5056867;28;20675;-59
2023/06/12 09:34:36;;;;;;;8.07;3.00;;;22.70;94.00;;;;;;5069731;28;20188;-60
2023/06/12 09:37:12;;;;;;;4.90;3.27;;;22.80;94.00;;;;;;5051391;28;20172;-57
2023/06/12 09:39:38;;;;;;;6.03;2.73;;;22.90;92.10;;;;;;5050742;28;20247;-59
2023/06/12 09:42:04;;;;;;;3.73;2.90;;;22.90;92.80;;;;;;5053659;28;20196;-59
2023/06/12 09:44:30;;;;;;;3.87;2.80;;;23.00;91.30;;;;;;5052256;28;20169;-58
2023/06/12 09:47:03;;;;;;;5.77;3.03;;;23.00;91.60;;;;;;5052633;28;20161;-59
2023/06/12 09:49:31;;;;;;;4.90;2.97;;;23.10;90.30;;;;;;5048812;28;20177;-57
2023/06/12 09:52:04;;;;;;;5.67;3.60;;;23.10;91.10;;;;;;5046184;28;20173;-59
2023/06/12 09:54:31;;;;;;;3.13;2.80;;;23.10;89.70;;;;;;5048374;28;20794;-58
2023/06/12 09:56:59;;;;;;;5.77;2.80;;;23.20;87.70;;;;;;5063596;28;20598;-58
2023/06/12 09:59:32;;;;;;;6.97;3.20;;;23.20;88.80;;;;;;5047658;28;20193;-58
2023/06/12 10:02:09;;;;;;;4.90;3.33;;;23.30;88.80;;;;;;5050822;28;20165;-59
2023/06/12 10:04:45;;;;;;;5.97;3.10;;;23.30;83.30;;;;;;5051613;28;20528;-58
2023/06/12 10:07:18;;;;;;;6.60;3.37;;;23.50;81.00;;;;;;5068840;28;20585;-59
2023/06/12 10:09:47;;;;;;;3.20;2.90;;;23.50;82.90;;;;;;5086476;28;20181;-60
2023/06/12 10:12:14;;;;;;;3.97;2.70;;;23.50;86.40;;;;;;5052236;28;20165;-60
2023/06/12 10:14:40;;;;;;;8.63;3.07;;;23.50;80.10;;;;;;5069800;28;20173;-60
2023/06/12 10:17:08;;;;;;;5.30;2.87;;;23.60;80.00;;;;;;5053337;28;20173;-57
2023/06/12 10:19:35;;;;;;;7.70;3.07;;;23.60;80.20;;;;;;5051829;28;20201;-60
2023/06/12 10:22:03;;;;;;;15.03;3.67;;;23.60;84.20;;;;;;5051561;28;20169;-59
2023/06/12 10:24:29;;;;;;;5.73;3.17;;;23.70;84.20;;;;;;5050689;28;20785;-59
2023/06/12 10:26:56;;;;;;;5.73;3.77;;;23.70;82.40;;;;;;5048024;28;20581;-59
2023/06/12 10:29:33;;;;;;;4.03;3.43;;;23.80;80.70;;;;;;5048463;28;20276;-59
2023/06/12 10:32:08;;;;;;;5.73;3.43;;;23.80;80.20;;;;;;5043399;28;20332;-58
2023/06/12 10:34:35;;;;;;;5.38;3.30;;;23.90;73.40;;;;;;5045131;28;20187;-60
2023/06/12 10:37:29;;;;;;;10.60;3.60;;;23.90;77.40;;;;;;5045573;28;20599;-59
2023/06/12 10:40:01;;;;;;;7.17;3.40;;;24.00;71.50;;;;;;5042748;28;20517;-56
2023/06/12 10:43:03;;;;;;;6.60;3.33;;;24.10;69.90;;;;;;5045051;28;20176;-59
2023/06/12 10:45:33;;;;;;;4.23;3.10;;;24.10;69.30;;;;;;5043041;28;20262;-59
2023/06/12 10:48:05;;;;;;;3.97;2.70;;;24.10;69.10;;;;;;5047325;28;20169;-60
2023/06/12 10:50:40;;;;;;;8.07;3.23;;;24.10;70.80;;;;;;5045996;28;20176;-60
2023/06/12 10:53:08;;;;;;;6.17;2.83;;;24.20;67.10;;;;;;5046947;28;20268;-60
2023/06/12 10:55:35;;;;;;;5.47;3.10;;;24.20;69.10;;;;;;5045195;28;20596;-59
2023/06/12 10:58:04;;;;;;;3.20;2.90;;;24.20;65.90;;;;;;5044473;28;20189;-60
2023/06/12 11:00:38;;;;;;;2.47;2.27;;;24.30;66.30;;;;;;5046032;28;20206;-57
2023/06/12 11:03:11;;;;;;;4.27;2.87;;;24.30;68.90;;;;;;5046195;28;20509;-59
2023/06/12 11:05:55;;;;;;;3.30;3.00;;;24.30;68.50;;;;;;5047868;28;20172;-59
2023/06/12 11:08:23;;;;;;;3.90;2.43;;;24.40;64.10;;;;;;5048754;28;20161;-59
2023/06/12 11:10:50;;;;;;;6.07;3.03;;;24.40;64.00;;;;;;5046187;28;20173;-57
2023/06/12 11:13:15;;;;;;;4.80;2.73;;;24.40;65.00;;;;;;5044776;28;20197;-56
2023/06/12 11:15:46;;;;;;;3.20;2.80;;;24.50;65.50;;;;;;5045491;28;20597;-57
2023/06/12 11:18:14;;;;;;;5.53;3.00;;;24.50;66.10;;;;;;5044457;28;20169;-57
2023/06/12 11:20:43;;;;;;;6.37;2.80;;;24.50;64.20;;;;;;5035750;28;20241;-57
2023/06/12 11:23:10;;;;;;;6.00;3.20;;;24.60;65.10;;;;;;5039346;28;20161;-58
2023/06/12 11:25:43;;;;;;;4.63;2.50;;;24.70;59.30;;;;;;5035991;28;20180;-56
2023/06/12 11:28:09;;;;;;;5.10;2.65;;;24.80;56.70;;;;;;5042179;28;20276;-56
2023/06/12 11:30:35;;;;;;;10.43;2.65;;;24.80;58.20;;;;;;5043108;28;20334;-56
2023/06/12 11:33:13;;;;;;;5.53;2.50;;;24.80;57.80;;;;;;5058301;28;20237;-58
2023/06/12 11:35:48;;;;;;;3.17;2.75;;;24.90;56.80;;;;;;5044637;28;20326;-58
2023/06/12 11:38:16;;;;;;;3.43;2.70;;;24.90;55.60;;;;;;5041726;28;20165;-58
2023/06/12 11:40:42;;;;;;;5.05;2.80;;;25.00;55.30;;;;;;5060048;28;20606;-58
2023/06/12 11:43:09;;;;;;;5.77;2.80;;;25.00;56.90;;;;;;5061291;28;20180;-55
2023/06/12 11:45:41;;;;;;;4.68;2.90;;;25.10;55.30;;;;;;5047112;28;20152;-57
2023/06/12 11:48:13;;;;;;;2.83;2.47;;;25.10;53.20;;;;;;5062142;28;20233;-59
2023/06/12 11:50:39;;;;;;;3.97;2.27;;;25.20;56.20;;;;;;5044613;28;20184;-53
2023/06/12 11:53:05;;;;;;;2.80;2.53;;;25.30;55.50;;;;;;5063653;28;20169;-57
2023/06/12 11:55:32;;;;;;;3.80;3.05;;;25.40;53.40;;;;;;5065972;28;20211;-60
2023/06/12 11:58:01;;;;;;;3.92;2.17;;;25.40;51.20;;;;;;5048725;28;20189;-59
2023/06/12 12:00:30;;;;;;;2.63;2.42;;;25.50;53.10;;;;;;5062071;28;20239;-59
2023/06/12 12:03:01;;;;;;;9.05;7.90;;;25.70;54.50;;;;;;5061419;28;20165;-58
2023/06/12 12:05:27;;;;;;;9.48;6.35;;;25.80;55.10;;;;;;5043829;28;20188;-56
2023/06/12 12:07:57;;;;;;;3.28;2.92;;;25.90;53.90;;;;;;5061815;28;20165;-57
2023/06/12 12:10:24;;;;;;;4.05;3.05;;;26.00;52.10;;;;;;5043834;28;20206;-57
2023/06/12 12:12:51;;;;;;;4.20;2.70;;;26.10;50.10;;;;;;5060877;28;20200;-58
2023/06/12 12:15:23;;;;;;;2.90;2.30;;;26.20;51.40;;;;;;5063364;28;20165;-57
2023/06/12 12:17:49;;;;;;;4.00;2.13;;;26.30;50.00;;;;;;5048321;28;20177;-58
2023/06/12 12:20:17;;;;;;;3.80;2.53;;;26.40;50.00;;;;;;5050162;28;20226;-58
2023/06/12 12:22:47;;;;;;;3.15;2.53;;;26.50;50.10;;;;;;5047322;28;20176;-59
2023/06/12 12:25:21;;;;;;;2.67;2.47;;;26.60;48.60;;;;;;5048393;28;20479;-59
2023/06/12 12:27:49;;;;;;;3.40;2.67;;;26.70;49.20;;;;;;5063289;28;20578;-57
2023/06/12 12:30:15;;;;;;;6.95;2.70;;;26.80;48.50;;;;;;5064400;28;20250;-58
2023/06/12 12:32:43;;;;;;;4.38;2.58;;;26.90;47.30;;;;;;5048656;28;20224;-59
2023/06/12 12:35:09;;;;;;;3.75;2.55;;;27.00;47.30;;;;;;5033779;28;20181;-59
2023/06/12 12:37:35;;;;;;;5.68;3.10;;;27.00;50.20;;;;;;5067319;28;20171;-54
2023/06/12 12:40:05;;;;;;;2.88;2.30;;;27.10;46.30;;;;;;5052338;28;20207;-59
2023/06/12 12:42:31;;;;;;;7.18;2.70;;;27.20;48.50;;;;;;5049670;28;20164;-58
2023/06/12 12:44:56;;;;;;;5.78;2.95;;;27.30;47.60;;;;;;5048276;28;20168;-59
2023/06/12 12:47:22;;;;;;;7.10;2.63;;;27.40;45.70;;;;;;5066230;28;20161;-59
2023/06/12 12:49:48;;;;;;;4.05;2.70;;;27.50;46.30;;;;;;5045785;28;20173;-58